Little Rock, AR

23:18 CDT le 22 septembre 2014 (GMT -0500)
Heights | Change Station
CLOSE
Current Station
Stations météorologiques personnelles
Location: Little Rock, AR
Altitude: 581 ft
Stations météo à proximité

Alt. 581 ft 34.77 °N, 92.33 °W | Updated 20 seconds ago

Partly Cloudy
Partiellement nuageux
64.9 ° F
Paraît 64.9 ° F
N
0.0
Vent Variable Vent de Nord
Gusts 0.0 mph

Aujourd'hui
Haut(e) -- | Bas -- ° F
--% Risque de précip.
Hier
Haut(e) -- | Bas -- ° F
Precip. -- pouce
6:57 AM 7:05 PM
Lune descendante, 1% visible
Pression 30.22 pouce
Visibilité 10.0 Miles terrestres
Nuages Peu 25000 ft
Point de rosée 42 ° F
Humidité 44%
Précipitations 0.00 pouce
Profondeur de la couche neigeuse Non disponible.
UV 0 sur 12
Pollen 10.20 sur 12
Ozone Bon
PM2.5 Bon
Flu Activity Non disponible.
METAR KLIT 230353Z 01004KT 10SM FEW250 17/11 A3022 RMK AO2 SLP233 T01670106

More Conditions Fewer Conditions

Pression 30.22 pouce
Visibilité 10.0 Miles terrestres
Nuages Peu 25000 ft
Point de rosée 42 ° F
Humidité 44%
Précipitations 0.00 pouce
Profondeur de la couche neigeuse Non disponible.
UV 0 sur 12
Pollen 10.20 sur 12
Ozone Bon
PM2.5 Bon
Flu Activity Non disponible.
METAR KLIT 230353Z 01004KT 10SM FEW250 17/11 A3022 RMK AO2 SLP233 T01670106

More Conditions Fewer Conditions

10-Day Weather Forecast

Almanac

Astronomie

Sep. 22, 2014 Lever Coucher
Temps réel 06:57 CDT 19:05 CDT
Crépuscule civil 06:31 CDT 19:31 CDT
Crépuscule nautique 06:02 CDT 20:00 CDT
Crépuscule astronomique 05:32 CDT 20:30 CDT
Lune 05:28 CDT (9/22) 18:12 CDT (9/22)
Durée de lumière visible 12h 59m
Longueur du jour
12h 08m
Tomorrow will be 2m 10s shorter.
Lune descendante, 1% of the Moon is Illuminated
Sep 23
Lune descendante
Sep 24
Nouveau
Oct 1
Premier quartier
Oct 8
Pleine lune
Oct 15
Dernier quartier

Extrêmes aujourd'hui

State Highs State Lows

Community

WunderPhotos

Upload Photos

1,755,611 Photos téléchargées !

Nearby

Qualité de l'air

  Qualité de l'air Indice de la qualité de l'air Polluant
Hier Moyen
PM2.5
Hier Bon
OZONE
Actuel Bon
PM2.5
Actuel Bon
OZONE
lundi Bon
OZONE
mardi Bon
OZONE

Épaisseur de neige

Station Depth Altitude
Pas de nouvelles chutes de neige

Activité sismique

Ville Distance Mag. Time & Date
No recent earthquake activity has been reported nearby.
Minimum magnitude displayed is 2.5.

Températures des eaux côtières

Lieu Température
Aucun rapport de station

Stations météo à proximité